Time;durP1;ratioP1;P1;durP2;ratioP2;P2;SDS_P1;SDS_P2;PMS_P1;PMS_P2;Temp;Humidity;BMP_temperature;BMP_pressure;BME280_temperature;BME280_humidity;BME280_pressure;Samples;Min_cycle;Max_cycle;Signal;HPM_P1;HPM_P2
2021/07/27 00:02:01;;;;;;;5.05;4.55;;;23.20;99.90;;;;;;5033227;28;20076;-71
2021/07/27 00:04:27;;;;;;;4.75;4.28;;;23.20;99.90;;;;;;5033238;28;20067;-72
2021/07/27 00:06:53;;;;;;;5.30;4.80;;;23.20;99.90;;;;;;5015467;28;20017;-72
2021/07/27 00:09:18;;;;;;;6.72;5.35;;;23.20;99.90;;;;;;5032698;28;20029;-71
2021/07/27 00:11:44;;;;;;;5.60;4.80;;;23.20;99.90;;;;;;5033011;28;20022;-72
2021/07/27 00:14:09;;;;;;;5.35;4.85;;;23.10;99.90;;;;;;5031901;28;20017;-73
2021/07/27 00:16:36;;;;;;;5.15;4.65;;;23.10;99.90;;;;;;5032587;28;20112;-71
2021/07/27 00:19:02;;;;;;;5.35;4.80;;;23.10;99.90;;;;;;5032945;28;20032;-71
2021/07/27 00:21:27;;;;;;;5.03;4.43;;;23.10;99.90;;;;;;5032766;28;20025;-71
2021/07/27 00:23:53;;;;;;;5.10;4.60;;;23.10;99.90;;;;;;5032780;28;20091;-71
2021/07/27 00:26:23;;;;;;;6.72;5.03;;;23.10;99.90;;;;;;5032339;28;20039;-71
2021/07/27 00:28:49;;;;;;;5.05;4.55;;;23.10;99.90;;;;;;5032806;28;20044;-73
2021/07/27 00:31:16;;;;;;;5.43;4.38;;;23.10;99.90;;;;;;5032422;28;20030;-72
2021/07/27 00:33:43;;;;;;;5.25;4.75;;;23.00;99.90;;;;;;5032598;28;20029;-71
2021/07/27 00:36:09;;;;;;;5.00;4.60;;;23.00;99.90;;;;;;5032551;28;20032;-72
2021/07/27 00:38:35;;;;;;;5.28;4.78;;;23.00;99.90;;;;;;5032187;28;20479;-73
2021/07/27 00:41:00;;;;;;;4.95;4.45;;;23.00;99.90;;;;;;5014837;28;20038;-71
2021/07/27 00:43:26;;;;;;;6.30;4.85;;;23.00;99.90;;;;;;5032460;28;20025;-71
2021/07/27 00:45:52;;;;;;;5.97;4.97;;;23.00;99.90;;;;;;5032272;28;20498;-73
2021/07/27 00:48:17;;;;;;;5.00;4.38;;;23.00;99.90;;;;;;5031911;28;20385;-72
2021/07/27 00:50:43;;;;;;;5.18;4.68;;;22.90;99.90;;;;;;5032369;28;20040;-73
2021/07/27 00:53:09;;;;;;;6.50;4.57;;;22.90;99.90;;;;;;5032251;28;20152;-72
2021/07/27 00:55:35;;;;;;;5.10;4.60;;;22.90;99.90;;;;;;5014333;28;20025;-72
2021/07/27 00:58:01;;;;;;;5.30;4.70;;;22.90;99.90;;;;;;5032111;28;20022;-73
2021/07/27 01:00:27;;;;;;;5.38;4.80;;;22.90;99.90;;;;;;5032152;28;20021;-73
2021/07/27 01:02:53;;;;;;;5.25;4.50;;;23.00;99.90;;;;;;5014325;28;20120;-72
2021/07/27 01:05:19;;;;;;;5.30;4.80;;;22.90;99.90;;;;;;5031702;28;20449;-72
2021/07/27 01:07:45;;;;;;;5.47;4.78;;;22.90;99.90;;;;;;5031830;28;20033;-72
2021/07/27 01:10:13;;;;;;;5.57;4.97;;;22.90;99.90;;;;;;5032096;28;20047;-74
2021/07/27 01:12:39;;;;;;;5.65;4.72;;;22.90;99.90;;;;;;5031742;28;20112;-74
2021/07/27 01:15:06;;;;;;;5.70;5.07;;;22.80;99.90;;;;;;5031876;28;20036;-71
2021/07/27 01:17:32;;;;;;;5.28;4.75;;;22.90;99.90;;;;;;5031746;28;20025;-73
2021/07/27 01:39:41;;;;;;;5.15;4.68;;;22.80;99.90;;;;;;5032015;28;20008;-72
2021/07/27 01:44:34;;;;;;;6.30;5.10;;;22.70;99.90;;;;;;5031112;28;20040;-72
2021/07/27 01:47:00;;;;;;;5.55;4.80;;;22.70;99.90;;;;;;5031614;28;20025;-71
2021/07/27 01:49:25;;;;;;;5.55;5.05;;;22.70;99.90;;;;;;5031431;28;20036;-73
2021/07/27 01:51:53;;;;;;;5.55;4.97;;;22.70;99.90;;;;;;5031374;28;20030;-72
2021/07/27 01:54:28;;;;;;;6.30;5.70;;;22.70;99.90;;;;;;5030981;28;20068;-72
2021/07/27 01:56:54;;;;;;;5.13;4.60;;;22.70;99.90;;;;;;5031507;28;20033;-73
2021/07/27 01:59:20;;;;;;;5.43;4.93;;;22.70;99.90;;;;;;5030895;28;20032;-72
2021/07/27 02:01:47;;;;;;;6.97;5.28;;;22.70;99.90;;;;;;5031268;28;20105;-72
2021/07/27 02:04:12;;;;;;;5.85;5.25;;;22.70;99.90;;;;;;5031124;28;20075;-72
2021/07/27 02:06:40;;;;;;;6.30;5.10;;;22.60;99.90;;;;;;5031127;28;20033;-72
2021/07/27 02:09:08;;;;;;;5.55;5.05;;;22.60;99.90;;;;;;5031197;28;20049;-72
2021/07/27 02:11:40;;;;;;;5.78;5.28;;;22.60;99.90;;;;;;5031194;28;20032;-73
2021/07/27 02:14:06;;;;;;;5.53;4.88;;;22.60;99.90;;;;;;5031322;28;20056;-72
2021/07/27 02:16:35;;;;;;;7.07;5.68;;;22.60;99.90;;;;;;5030763;28;20060;-73
2021/07/27 02:19:02;;;;;;;5.10;4.60;;;22.60;99.90;;;;;;5030971;28;20037;-72
2021/07/27 02:21:27;;;;;;;5.45;4.95;;;22.60;99.90;;;;;;5030949;28;20022;-73
2021/07/27 02:23:53;;;;;;;6.03;5.30;;;22.60;99.90;;;;;;5031012;28;20053;-73
2021/07/27 02:26:18;;;;;;;5.10;4.60;;;22.60;99.90;;;;;;5030900;28;20060;-73
2021/07/27 02:28:44;;;;;;;6.47;4.72;;;22.60;99.90;;;;;;5031009;28;20025;-73
2021/07/27 02:31:15;;;;;;;5.68;5.03;;;22.60;99.90;;;;;;5031063;28;20108;-71
2021/07/27 02:33:40;;;;;;;5.85;5.05;;;22.50;99.90;;;;;;5030959;28;20065;-72
2021/07/27 02:36:06;;;;;;;5.32;4.82;;;22.50;99.90;;;;;;5030931;28;20499;-73
2021/07/27 02:38:32;;;;;;;6.72;5.28;;;22.50;99.90;;;;;;5033549;28;20104;-72
2021/07/27 02:40:57;;;;;;;5.88;5.10;;;22.50;99.90;;;;;;5035030;28;20103;-73
2021/07/27 02:43:23;;;;;;;5.88;5.30;;;22.50;99.90;;;;;;5034476;28;20022;-72
2021/07/27 02:45:48;;;;;;;6.22;5.60;;;22.50;99.90;;;;;;5034590;28;20069;-72
2021/07/27 02:48:14;;;;;;;5.80;5.20;;;22.50;99.90;;;;;;5034102;28;20034;-73
2021/07/27 02:50:39;;;;;;;5.97;5.43;;;22.50;99.90;;;;;;5034630;28;20543;-73
2021/07/27 02:53:05;;;;;;;5.78;5.10;;;22.50;99.90;;;;;;5034503;28;20057;-72
2021/07/27 02:55:31;;;;;;;5.95;5.35;;;22.50;99.90;;;;;;5034565;28;20109;-73
2021/07/27 02:57:58;;;;;;;5.70;5.20;;;22.50;99.90;;;;;;5016885;28;20148;-72
2021/07/27 03:00:24;;;;;;;5.75;5.03;;;22.50;99.90;;;;;;5016365;28;20526;-73
2021/07/27 03:02:49;;;;;;;6.53;5.60;;;22.50;99.90;;;;;;5034267;28;20060;-72
2021/07/27 03:05:17;;;;;;;5.95;4.95;;;22.50;99.90;;;;;;5033987;28;20029;-72
2021/07/27 03:10:21;;;;;;;6.10;5.45;;;22.40;99.90;;;;;;5034299;28;20028;-73
2021/07/27 03:12:52;;;;;;;5.68;5.18;;;22.40;99.90;;;;;;5034371;28;20033;-72
2021/07/27 03:15:19;;;;;;;6.60;4.75;;;22.40;99.90;;;;;;5033868;28;20491;-73
2021/07/27 03:17:45;;;;;;;5.65;4.80;;;22.40;99.90;;;;;;5034025;28;20026;-73
2021/07/27 03:20:13;;;;;;;6.68;5.53;;;22.40;99.90;;;;;;5033947;28;20030;-73
2021/07/27 03:22:42;;;;;;;5.57;5.07;;;22.40;99.90;;;;;;5033750;28;20393;-72
2021/07/27 03:25:10;;;;;;;6.00;5.20;;;22.40;99.90;;;;;;5033944;28;20059;-72
2021/07/27 03:27:38;;;;;;;6.05;5.18;;;22.40;99.90;;;;;;5033493;28;20517;-72
2021/07/27 03:30:05;;;;;;;5.47;4.90;;;22.40;99.90;;;;;;5033682;28;20025;-72
2021/07/27 03:32:36;;;;;;;5.30;4.80;;;22.40;99.90;;;;;;5033762;28;20060;-72
2021/07/27 03:35:03;;;;;;;5.03;4.57;;;22.40;99.90;;;;;;5033866;28;20026;-72
2021/07/27 03:37:29;;;;;;;5.78;5.00;;;22.40;99.90;;;;;;5033754;28;20136;-72
2021/07/27 03:39:54;;;;;;;5.85;5.35;;;22.40;99.90;;;;;;5033630;28;20060;-73
2021/07/27 03:42:22;;;;;;;6.00;5.40;;;22.40;99.90;;;;;;5033399;28;20465;-72
2021/07/27 03:44:52;;;;;;;5.60;5.10;;;22.40;99.90;;;;;;5033428;28;20546;-73
2021/07/27 03:47:17;;;;;;;5.07;4.68;;;22.40;99.90;;;;;;5033147;28;20026;-72
2021/07/27 03:49:43;;;;;;;5.40;4.90;;;22.40;99.90;;;;;;5033314;28;20171;-73
2021/07/27 03:52:08;;;;;;;5.90;5.10;;;22.40;99.90;;;;;;5033412;28;20033;-73
2021/07/27 03:54:34;;;;;;;6.63;5.32;;;22.40;99.90;;;;;;5015247;28;20025;-73
2021/07/27 03:57:06;;;;;;;5.90;5.30;;;22.40;99.90;;;;;;5015751;28;20112;-73
2021/07/27 03:59:32;;;;;;;5.90;5.38;;;22.40;99.90;;;;;;5033352;28;20029;-73
2021/07/27 04:01:58;;;;;;;5.22;4.78;;;22.40;99.90;;;;;;5033225;28;20548;-71
2021/07/27 04:04:25;;;;;;;5.45;4.95;;;22.40;99.90;;;;;;5032886;28;20034;-72
2021/07/27 04:06:51;;;;;;;6.00;5.30;;;22.40;99.90;;;;;;5033174;28;20128;-73
2021/07/27 04:09:16;;;;;;;6.18;5.57;;;22.40;99.90;;;;;;5032992;28;20481;-72
2021/07/27 04:11:42;;;;;;;4.90;4.40;;;22.40;99.90;;;;;;5033082;28;20035;-72
2021/07/27 04:14:10;;;;;;;5.43;4.88;;;22.40;99.90;;;;;;5032975;28;20484;-72
2021/07/27 04:16:39;;;;;;;5.65;5.15;;;22.30;99.90;;;;;;5032947;28;20418;-72
2021/07/27 04:19:06;;;;;;;5.97;5.30;;;22.40;99.90;;;;;;5032935;28;20032;-72
2021/07/27 04:21:32;;;;;;;6.00;5.32;;;22.30;99.90;;;;;;5015111;28;20029;-72
2021/07/27 04:23:58;;;;;;;5.75;5.13;;;22.40;99.90;;;;;;5032821;28;20033;-72
2021/07/27 04:26:24;;;;;;;5.70;5.20;;;22.30;99.90;;;;;;5032483;28;20075;-72
2021/07/27 04:28:50;;;;;;;8.63;5.40;;;22.30;99.90;;;;;;5032707;28;20038;-73
2021/07/27 04:31:17;;;;;;;5.70;5.05;;;22.30;99.90;;;;;;5032351;28;20033;-73
2021/07/27 04:33:42;;;;;;;5.97;5.10;;;22.30;99.90;;;;;;5032642;28;20071;-72
2021/07/27 04:36:11;;;;;;;6.53;5.25;;;22.30;99.90;;;;;;5032524;28;20112;-72
2021/07/27 04:38:38;;;;;;;5.30;4.80;;;22.30;99.90;;;;;;5032294;28;20095;-72
2021/07/27 04:41:04;;;;;;;6.32;5.72;;;22.30;99.90;;;;;;5014776;28;20029;-73
2021/07/27 04:43:30;;;;;;;5.88;5.25;;;22.30;99.90;;;;;;5032262;28;20021;-78
2021/07/27 04:45:59;;;;;;;6.13;4.47;;;22.30;99.90;;;;;;5014555;28;20120;-75
2021/07/27 04:48:25;;;;;;;6.65;5.50;;;22.40;99.90;;;;;;5029495;28;20029;-74
2021/07/27 04:50:51;;;;;;;6.22;5.45;;;22.30;99.90;;;;;;5009560;28;20076;-72
2021/07/27 04:53:22;;;;;;;6.57;5.32;;;22.30;99.90;;;;;;5026781;28;20025;-72
2021/07/27 04:55:48;;;;;;;6.30;5.40;;;22.40;99.90;;;;;;5027059;28;20041;-72
2021/07/27 04:58:14;;;;;;;5.43;4.93;;;22.30;99.90;;;;;;5009200;28;20026;-72
2021/07/27 05:00:40;;;;;;;6.75;5.60;;;22.30;99.90;;;;;;5027788;28;20036;-72
2021/07/27 05:03:05;;;;;;;7.50;5.38;;;22.30;99.90;;;;;;5026947;28;20041;-72
2021/07/27 05:05:31;;;;;;;5.82;5.32;;;22.30;99.90;;;;;;5009327;28;20072;-72
2021/07/27 05:07:59;;;;;;;6.85;5.53;;;22.30;99.90;;;;;;5027026;28;20034;-72
2021/07/27 05:10:25;;;;;;;6.20;5.00;;;22.30;99.90;;;;;;5026746;28;20057;-72
2021/07/27 05:12:51;;;;;;;6.82;5.45;;;22.30;99.90;;;;;;5027360;28;20101;-73
2021/07/27 05:15:17;;;;;;;6.32;4.90;;;22.30;99.90;;;;;;5026952;28;20127;-72
2021/07/27 05:17:43;;;;;;;7.10;5.60;;;22.40;99.90;;;;;;5026718;28;20112;-72
2021/07/27 05:20:10;;;;;;;5.72;5.22;;;22.30;99.90;;;;;;5026881;28;20493;-72
2021/07/27 05:22:36;;;;;;;6.13;5.47;;;22.30;99.90;;;;;;5026158;28;20381;-72
2021/07/27 05:25:02;;;;;;;6.10;5.30;;;22.40;99.90;;;;;;5026767;28;20033;-73
2021/07/27 05:27:31;;;;;;;5.75;5.22;;;22.40;99.90;;;;;;5026559;28;20055;-72
2021/07/27 05:29:57;;;;;;;7.13;5.47;;;22.40;99.90;;;;;;5026387;28;20440;-73
2021/07/27 05:32:24;;;;;;;5.80;5.13;;;22.40;99.90;;;;;;5025934;28;20017;-72
2021/07/27 05:34:50;;;;;;;5.47;4.97;;;22.40;99.90;;;;;;5027045;28;20028;-72
2021/07/27 05:37:16;;;;;;;5.55;5.05;;;22.40;99.90;;;;;;5026419;28;20729;-72
2021/07/27 05:39:41;;;;;;;5.53;5.03;;;22.40;99.90;;;;;;5025995;28;20033;-73
2021/07/27 05:42:07;;;;;;;6.07;5.22;;;22.40;99.90;;;;;;5026591;28;20030;-72
2021/07/27 05:44:33;;;;;;;6.60;5.70;;;22.40;99.90;;;;;;5026430;28;20052;-72
2021/07/27 05:47:02;;;;;;;6.57;5.07;;;22.40;99.90;;;;;;5026462;28;20063;-72
2021/07/27 05:49:29;;;;;;;5.80;5.22;;;22.40;99.90;;;;;;5025840;28;20034;-72
2021/07/27 05:51:55;;;;;;;5.68;5.18;;;22.40;99.90;;;;;;5025236;28;20022;-72
2021/07/27 05:54:21;;;;;;;5.78;5.28;;;22.40;99.90;;;;;;5026501;28;20025;-72
2021/07/27 05:56:51;;;;;;;5.60;5.10;;;22.40;99.90;;;;;;5026524;28;20029;-73
2021/07/27 05:59:18;;;;;;;6.75;5.10;;;22.40;99.90;;;;;;5007923;28;20051;-72
2021/07/27 06:01:44;;;;;;;7.22;6.25;;;22.40;99.90;;;;;;5026382;28;21583;-72
2021/07/27 06:04:09;;;;;;;9.07;6.53;;;22.40;99.90;;;;;;5025835;28;20393;-73
2021/07/27 06:06:35;;;;;;;10.65;7.43;;;22.30;99.90;;;;;;5025757;28;20033;-73
2021/07/27 06:09:03;;;;;;;14.65;8.32;;;22.40;99.90;;;;;;5026630;28;20028;-72
2021/07/27 06:11:30;;;;;;;12.93;8.80;;;22.30;99.90;;;;;;5026528;28;20033;-73
2021/07/27 06:13:56;;;;;;;14.00;8.93;;;22.40;99.90;;;;;;5034655;28;20040;-72
2021/07/27 06:16:22;;;;;;;13.23;8.90;;;22.30;99.90;;;;;;5034945;28;20034;-72
2021/07/27 06:18:47;;;;;;;12.40;9.07;;;22.40;99.90;;;;;;5035259;28;20096;-73
2021/07/27 06:21:13;;;;;;;12.25;9.90;;;22.30;99.90;;;;;;5034981;28;20524;-72
2021/07/27 06:23:38;;;;;;;12.07;9.35;;;22.40;99.90;;;;;;5035547;28;20069;-74
2021/07/27 06:26:05;;;;;;;12.85;8.95;;;22.30;99.90;;;;;;5035440;28;20030;-73
2021/07/27 06:28:31;;;;;;;14.13;9.40;;;22.40;99.90;;;;;;5035022;28;20029;-73
2021/07/27 06:30:57;;;;;;;11.90;10.07;;;22.30;99.90;;;;;;5034998;28;20076;-73
2021/07/27 06:33:23;;;;;;;14.20;10.25;;;22.30;99.90;;;;;;5034758;28;20547;-73
2021/07/27 06:35:48;;;;;;;19.13;11.20;;;22.30;99.90;;;;;;5017107;28;20396;-78
2021/07/27 06:38:14;;;;;;;17.80;11.57;;;22.30;99.90;;;;;;5034705;28;20162;-72
2021/07/27 06:40:39;;;;;;;16.92;12.60;;;22.30;99.90;;;;;;5035004;28;20500;-72
2021/07/27 06:43:05;;;;;;;16.58;11.95;;;22.30;99.90;;;;;;5035192;28;20029;-71
2021/07/27 06:45:31;;;;;;;13.73;11.95;;;22.30;99.90;;;;;;5034395;28;20436;-70
2021/07/27 06:47:56;;;;;;;15.82;11.60;;;22.30;99.90;;;;;;5034316;28;20021;-71
2021/07/27 06:50:22;;;;;;;13.60;11.18;;;22.40;99.90;;;;;;5033162;28;20029;-73
2021/07/27 06:52:48;;;;;;;15.10;11.68;;;22.30;99.90;;;;;;5033330;28;20029;-71
2021/07/27 06:55:17;;;;;;;15.07;10.98;;;22.30;99.90;;;;;;5033151;28;20036;-72
2021/07/27 06:57:43;;;;;;;14.52;11.05;;;22.30;99.90;;;;;;5016245;28;20030;-71
2021/07/27 07:00:09;;;;;;;17.65;10.73;;;22.30;99.90;;;;;;5033157;28;20025;-71
2021/07/27 07:02:35;;;;;;;16.70;10.43;;;22.30;99.90;;;;;;5032829;28;20524;-74
2021/07/27 07:05:00;;;;;;;16.52;10.57;;;22.30;99.90;;;;;;5026526;28;20045;-77
2021/07/27 07:07:26;;;;;;;15.27;9.63;;;22.30;99.90;;;;;;5019926;28;20515;-73
2021/07/27 07:09:52;;;;;;;15.15;9.02;;;22.30;99.90;;;;;;5021499;28;20072;-72
2021/07/27 07:12:17;;;;;;;14.65;9.20;;;22.30;99.90;;;;;;5026465;28;20048;-75
2021/07/27 07:14:43;;;;;;;15.25;8.90;;;22.30;99.90;;;;;;5031787;28;20116;-74
2021/07/27 07:17:11;;;;;;;13.80;8.25;;;22.30;99.90;;;;;;5013021;28;20026;-75
2021/07/27 07:19:37;;;;;;;10.77;7.88;;;22.40;99.90;;;;;;5022035;28;20018;-74
2021/07/27 07:22:03;;;;;;;12.65;7.75;;;22.40;99.90;;;;;;5018795;28;20029;-74
2021/07/27 07:24:29;;;;;;;12.75;8.40;;;22.40;99.90;;;;;;5012463;28;20104;-74
2021/07/27 07:26:54;;;;;;;11.63;7.45;;;22.40;99.90;;;;;;5012953;28;20489;-71
2021/07/27 07:29:20;;;;;;;11.85;7.47;;;22.40;99.90;;;;;;5028652;28;20033;-71
2021/07/27 07:31:47;;;;;;;10.48;7.70;;;22.40;99.90;;;;;;5028971;28;20026;-70
2021/07/27 07:34:13;;;;;;;11.70;7.78;;;22.50;99.90;;;;;;5022398;28;20473;-70
2021/07/27 07:36:38;;;;;;;10.48;6.65;;;22.60;99.90;;;;;;5017697;28;20040;-71
2021/07/27 07:39:04;;;;;;;12.30;7.18;;;22.70;99.90;;;;;;5027598;28;20041;-74
2021/07/27 07:41:30;;;;;;;11.70;6.90;;;22.70;99.90;;;;;;5020964;28;20022;-73
2021/07/27 07:43:55;;;;;;;10.82;6.65;;;22.70;99.90;;;;;;5019225;28;20060;-73
2021/07/27 07:46:21;;;;;;;16.75;7.63;;;22.60;99.90;;;;;;4994822;28;20470;-68
2021/07/27 07:48:47;;;;;;;12.65;7.50;;;22.60;99.90;;;;;;4974019;28;1128861;-69
2021/07/27 07:51:12;;;;;;;12.48;6.70;;;22.70;99.90;;;;;;5013866;28;20112;-70
2021/07/27 07:53:38;;;;;;;12.40;7.05;;;22.70;99.90;;;;;;5013621;28;20139;-70
2021/07/27 07:56:09;;;;;;;11.30;6.25;;;22.80;99.90;;;;;;5016382;28;20108;-73
2021/07/27 07:58:34;;;;;;;11.63;6.55;;;22.90;99.90;;;;;;5021394;28;20496;-73
2021/07/27 08:01:00;;;;;;;9.57;6.18;;;23.00;99.90;;;;;;5029926;28;20053;-72
2021/07/27 08:03:26;;;;;;;10.00;6.22;;;23.00;99.90;;;;;;5033092;28;20033;-72
2021/07/27 08:05:51;;;;;;;7.40;5.85;;;23.00;99.90;;;;;;5025429;28;20037;-72
2021/07/27 08:08:19;;;;;;;8.88;5.95;;;23.10;99.90;;;;;;5013269;28;20103;-75
2021/07/27 08:10:45;;;;;;;11.55;6.38;;;23.10;99.90;;;;;;5013530;28;20428;-73
2021/07/27 08:13:10;;;;;;;9.32;5.82;;;23.00;99.90;;;;;;5013318;28;20029;-73
2021/07/27 08:15:36;;;;;;;10.45;6.07;;;22.90;99.90;;;;;;5013223;28;20041;-75
2021/07/27 08:18:02;;;;;;;8.55;5.75;;;23.00;99.90;;;;;;5023638;28;20025;-75
2021/07/27 08:20:29;;;;;;;10.68;6.05;;;23.00;99.90;;;;;;5030240;28;20099;-77
2021/07/27 08:22:57;;;;;;;9.52;6.00;;;23.00;99.90;;;;;;5021718;28;20029;-77
2021/07/27 08:25:23;;;;;;;8.38;5.35;;;23.00;99.90;;;;;;5013170;28;20041;-74
2021/07/27 08:27:48;;;;;;;10.52;5.97;;;23.00;99.90;;;;;;5017679;28;20032;-74
2021/07/27 08:30:15;;;;;;;11.20;5.95;;;23.00;99.90;;;;;;5024782;28;20022;-76
2021/07/27 08:32:48;;;;;;;11.45;6.22;;;23.00;99.90;;;;;;5015443;28;20033;-77
2021/07/27 08:35:15;;;;;;;12.05;6.03;;;23.10;99.90;;;;;;5020917;28;20436;-77
2021/07/27 08:37:41;;;;;;;10.77;6.57;;;23.10;99.90;;;;;;5032636;28;20025;-75
2021/07/27 08:40:07;;;;;;;13.10;6.60;;;23.10;99.90;;;;;;5031361;28;20424;-75
2021/07/27 08:42:34;;;;;;;12.57;7.63;;;23.10;99.90;;;;;;5028321;28;20087;-77
2021/07/27 08:45:04;;;;;;;12.68;6.95;;;23.00;99.90;;;;;;5029634;28;20061;-74
2021/07/27 08:47:31;;;;;;;9.65;6.03;;;23.00;99.90;;;;;;5012528;28;20060;-72
2021/07/27 08:50:01;;;;;;;11.20;6.13;;;23.10;99.90;;;;;;5032021;28;20095;-73
2021/07/27 08:52:27;;;;;;;13.32;7.13;;;23.10;99.90;;;;;;5029161;28;20025;-71
2021/07/27 08:54:53;;;;;;;14.75;6.80;;;23.20;99.90;;;;;;5013103;28;20108;-74
2021/07/27 08:57:20;;;;;;;11.65;6.72;;;23.20;99.90;;;;;;5013265;28;20040;-74
2021/07/27 08:59:46;;;;;;;14.63;7.85;;;23.00;99.90;;;;;;4996090;28;20387;-74
2021/07/27 09:02:12;;;;;;;15.02;7.93;;;23.00;99.90;;;;;;5020837;28;20465;-74
2021/07/27 09:04:38;;;;;;;12.05;7.50;;;23.10;99.90;;;;;;5030004;28;20033;-74
2021/07/27 09:07:05;;;;;;;14.02;8.15;;;23.00;99.90;;;;;;5031217;28;20033;-77
2021/07/27 09:09:32;;;;;;;14.00;7.90;;;23.00;99.90;;;;;;5014096;28;20111;-76
2021/07/27 09:12:00;;;;;;;13.40;8.05;;;23.00;99.90;;;;;;5028531;28;20029;-76
2021/07/27 09:14:26;;;;;;;12.75;8.02;;;23.10;99.90;;;;;;5031859;28;20022;-76
2021/07/27 09:16:57;;;;;;;14.55;8.27;;;23.00;99.90;;;;;;5028610;28;20366;-75
2021/07/27 09:19:23;;;;;;;13.50;8.00;;;23.00;99.90;;;;;;5022621;28;20103;-75
2021/07/27 09:21:50;;;;;;;16.77;8.40;;;23.00;99.90;;;;;;5031881;28;20033;-74
2021/07/27 09:24:21;;;;;;;11.45;8.18;;;23.10;99.90;;;;;;5031364;28;20044;-74
2021/07/27 09:26:57;;;;;;;9.57;7.18;;;23.10;99.90;;;;;;5023876;28;20105;-73
2021/07/27 09:29:23;;;;;;;11.45;7.35;;;23.10;99.90;;;;;;5011879;28;20052;-72
2021/07/27 09:31:51;;;;;;;13.10;7.78;;;23.10;99.90;;;;;;5013067;28;20520;-74
2021/07/27 09:34:16;;;;;;;12.63;8.07;;;23.20;99.90;;;;;;5011753;28;20034;-74
2021/07/27 09:36:43;;;;;;;14.50;8.00;;;23.20;99.90;;;;;;5019702;28;20358;-73
2021/07/27 09:39:09;;;;;;;12.48;8.27;;;23.20;99.90;;;;;;5032072;28;20413;-73
2021/07/27 09:41:34;;;;;;;14.27;7.80;;;23.10;99.90;;;;;;5029465;28;20028;-72
2021/07/27 09:44:00;;;;;;;14.80;7.97;;;23.10;99.90;;;;;;5031487;28;20029;-73
2021/07/27 09:46:27;;;;;;;12.65;7.32;;;23.20;99.90;;;;;;5030375;28;20389;-74
2021/07/27 09:48:55;;;;;;;10.45;7.15;;;23.20;99.90;;;;;;5011526;28;20030;-74
2021/07/27 09:51:21;;;;;;;12.73;6.80;;;23.20;99.90;;;;;;5011317;28;20029;-74
2021/07/27 09:53:47;;;;;;;12.23;7.20;;;23.20;99.90;;;;;;5023635;28;20026;-74
2021/07/27 09:56:13;;;;;;;10.55;6.82;;;23.20;99.90;;;;;;5011457;28;20101;-75
2021/07/27 09:58:40;;;;;;;10.23;6.78;;;23.30;99.90;;;;;;5011972;28;20108;-74
2021/07/27 10:01:05;;;;;;;8.48;6.32;;;23.30;99.90;;;;;;5012285;28;20026;-74
2021/07/27 10:03:35;;;;;;;11.23;6.53;;;23.30;99.90;;;;;;5030674;28;20083;-74
2021/07/27 10:06:05;;;;;;;9.13;5.95;;;23.30;99.90;;;;;;5031201;28;20500;-76
2021/07/27 10:08:31;;;;;;;12.35;6.93;;;23.30;99.90;;;;;;5009672;28;20171;-75
2021/07/27 10:11:13;;;;;;;12.20;7.20;;;23.30;99.90;;;;;;5031418;28;20096;-75
2021/07/27 10:13:46;;;;;;;10.52;7.35;;;23.40;99.90;;;;;;5012119;28;20033;-75
2021/07/27 10:16:23;;;;;;;10.02;7.15;;;23.70;99.90;;;;;;5020915;28;20477;-72
2021/07/27 10:18:52;;;;;;;10.07;7.10;;;23.70;99.90;;;;;;5019833;28;20560;-74
2021/07/27 10:21:27;;;;;;;12.90;7.57;;;23.80;99.90;;;;;;5002195;28;20076;-77
2021/07/27 10:24:09;;;;;;;10.63;6.57;;;23.60;99.90;;;;;;5021464;28;20084;-76
2021/07/27 10:26:35;;;;;;;8.85;6.20;;;23.60;99.90;;;;;;5018756;28;20389;-77
2021/07/27 10:29:01;;;;;;;12.38;6.85;;;23.60;99.90;;;;;;5020779;28;20021;-74
2021/07/27 10:31:45;;;;;;;9.98;6.65;;;23.60;99.90;;;;;;5018531;28;20058;-75
2021/07/27 10:34:14;;;;;;;12.52;8.02;;;23.70;99.90;;;;;;5020343;28;20037;-75
2021/07/27 10:36:43;;;;;;;10.93;7.10;;;23.70;99.90;;;;;;5019183;28;20044;-76
2021/07/27 10:39:15;;;;;;;13.25;7.68;;;23.70;99.90;;;;;;5020150;28;20400;-75
2021/07/27 10:41:48;;;;;;;10.60;6.80;;;23.70;99.90;;;;;;5020593;28;20025;-75
2021/07/27 10:44:16;;;;;;;12.32;7.68;;;23.70;99.90;;;;;;5018486;28;20041;-74
2021/07/27 10:46:46;;;;;;;10.55;7.97;;;23.80;99.90;;;;;;5018526;28;20841;-74
2021/07/27 10:49:17;;;;;;;13.65;6.80;;;23.80;99.90;;;;;;5020036;28;20037;-75
2021/07/27 10:51:47;;;;;;;11.38;6.80;;;23.80;99.90;;;;;;5020109;28;20500;-75
2021/07/27 10:54:24;;;;;;;8.93;7.00;;;23.80;99.90;;;;;;5019935;28;20033;-75
2021/07/27 10:57:02;;;;;;;11.70;6.93;;;23.80;99.90;;;;;;5020145;28;20033;-74
2021/07/27 10:59:32;;;;;;;8.13;6.50;;;23.80;99.90;;;;;;5029709;28;20029;-75
2021/07/27 11:01:59;;;;;;;10.02;7.05;;;23.80;99.90;;;;;;5020608;28;20525;-74
2021/07/27 11:04:30;;;;;;;9.63;7.00;;;23.90;99.90;;;;;;5014423;28;20069;-75
2021/07/27 11:07:13;;;;;;;9.15;6.97;;;23.90;99.90;;;;;;5014483;28;20061;-75
2021/07/27 11:10:05;;;;;;;12.40;7.63;;;23.90;99.90;;;;;;5004534;28;20503;-74
2021/07/27 11:12:31;;;;;;;10.07;7.30;;;23.90;99.90;;;;;;5031199;28;20037;-75
2021/07/27 11:15:18;;;;;;;7.63;6.50;;;23.90;99.90;;;;;;5034328;28;20356;-75
2021/07/27 11:17:47;;;;;;;8.52;6.57;;;24.00;99.90;;;;;;5026064;28;20028;-74
2021/07/27 11:20:39;;;;;;;10.05;6.55;;;24.00;99.90;;;;;;5014163;28;20097;-75
2021/07/27 11:23:11;;;;;;;9.75;6.43;;;24.00;99.90;;;;;;5022776;28;20030;-74
2021/07/27 11:25:38;;;;;;;10.50;6.60;;;24.00;99.90;;;;;;5014180;28;20041;-77
2021/07/27 11:28:12;;;;;;;8.48;6.38;;;24.00;99.90;;;;;;5019811;28;20026;-75
2021/07/27 11:30:39;;;;;;;8.25;6.70;;;24.10;99.90;;;;;;5014477;28;20021;-75
2021/07/27 11:33:12;;;;;;;10.73;6.30;;;24.00;99.90;;;;;;5023326;28;20022;-76
2021/07/27 11:35:49;;;;;;;10.00;6.18;;;23.90;99.90;;;;;;5003519;28;20029;-75
2021/07/27 11:38:29;;;;;;;6.47;5.78;;;23.90;99.90;;;;;;5022027;28;20108;-74
2021/07/27 11:41:10;;;;;;;8.63;6.05;;;23.90;99.90;;;;;;5022456;28;20018;-74
2021/07/27 11:43:38;;;;;;;8.15;6.20;;;23.90;99.90;;;;;;5021884;28;20032;-78
2021/07/27 11:46:08;;;;;;;8.43;6.32;;;23.90;99.90;;;;;;5025162;28;20044;-77
2021/07/27 11:48:35;;;;;;;8.38;5.82;;;24.00;99.90;;;;;;5023411;28;20484;-75
2021/07/27 11:51:02;;;;;;;8.00;6.45;;;24.00;99.90;;;;;;5023250;28;20060;-75
2021/07/27 11:53:31;;;;;;;8.70;5.50;;;24.00;99.90;;;;;;5014689;28;20109;-77
2021/07/27 11:55:57;;;;;;;7.88;6.53;;;24.00;99.90;;;;;;5033632;28;20045;-76
2021/07/27 11:58:29;;;;;;;8.18;5.97;;;24.00;99.90;;;;;;5033174;28;20056;-72
2021/07/27 12:00:57;;;;;;;7.63;5.88;;;24.20;99.90;;;;;;5033986;28;20025;-70
2021/07/27 12:03:23;;;;;;;7.63;5.97;;;24.20;99.90;;;;;;5034263;28;20431;-73
2021/07/27 12:05:48;;;;;;;6.80;6.10;;;24.30;99.90;;;;;;5033166;28;20043;-73
2021/07/27 12:08:14;;;;;;;8.85;6.30;;;24.40;99.90;;;;;;5033044;28;20100;-75
2021/07/27 12:10:40;;;;;;;6.80;5.47;;;24.40;99.90;;;;;;5032282;28;20034;-73
2021/07/27 12:13:05;;;;;;;7.88;5.57;;;24.40;99.90;;;;;;5015438;28;20018;-74
2021/07/27 12:15:31;;;;;;;8.15;5.72;;;24.50;99.90;;;;;;5032796;28;20083;-73
2021/07/27 12:17:56;;;;;;;6.50;5.60;;;24.50;99.90;;;;;;5033007;28;20061;-75
2021/07/27 12:20:22;;;;;;;7.88;5.82;;;24.50;99.90;;;;;;5032041;28;20064;-72
2021/07/27 12:22:48;;;;;;;6.78;4.75;;;24.50;99.90;;;;;;5033073;28;20109;-74
2021/07/27 12:25:13;;;;;;;8.68;5.78;;;24.60;99.90;;;;;;5014835;28;20416;-72
2021/07/27 12:27:39;;;;;;;6.68;5.40;;;24.60;99.90;;;;;;5033215;28;20426;-73
2021/07/27 12:30:06;;;;;;;6.78;6.05;;;24.60;99.90;;;;;;5033026;28;20091;-73
2021/07/27 12:32:32;;;;;;;6.40;5.32;;;24.70;99.90;;;;;;5032568;28;20096;-72
2021/07/27 12:34:58;;;;;;;7.07;5.35;;;24.70;99.90;;;;;;5032423;28;20017;-75
2021/07/27 12:37:24;;;;;;;5.90;5.30;;;24.70;99.90;;;;;;5032550;28;20032;-74
2021/07/27 12:39:49;;;;;;;6.75;5.00;;;24.70;99.90;;;;;;5032731;28;20053;-73
2021/07/27 12:42:15;;;;;;;6.43;5.25;;;24.70;99.90;;;;;;5031769;28;20469;-74
2021/07/27 12:44:41;;;;;;;7.00;5.43;;;24.70;99.90;;;;;;5031520;28;20041;-75
2021/07/27 12:47:07;;;;;;;6.63;5.70;;;24.80;99.90;;;;;;5032492;28;20037;-74
2021/07/27 12:49:33;;;;;;;10.82;5.95;;;24.80;99.90;;;;;;5014508;28;20041;-74
2021/07/27 12:51:59;;;;;;;6.43;4.65;;;24.80;99.90;;;;;;5032545;28;20473;-73
2021/07/27 12:54:25;;;;;;;5.72;5.15;;;24.80;99.90;;;;;;5032161;28;20087;-76
2021/07/27 12:56:50;;;;;;;9.05;5.40;;;24.80;99.90;;;;;;5032363;28;20488;-72
2021/07/27 12:59:16;;;;;;;6.22;5.05;;;24.90;99.90;;;;;;5014417;28;20117;-74
2021/07/27 13:01:41;;;;;;;6.57;5.45;;;24.90;99.90;;;;;;5014838;28;20028;-74
2021/07/27 13:04:08;;;;;;;7.47;5.60;;;25.00;99.90;;;;;;5032219;28;20140;-74
2021/07/27 13:06:34;;;;;;;5.85;5.25;;;25.00;99.90;;;;;;5032072;28;20037;-74
2021/07/27 13:09:01;;;;;;;5.88;5.30;;;25.00;99.90;;;;;;5014321;28;20025;-74